ADDS METAR Data INFO
IDs: Format: Raw Decoded Include TAF

Data at: 0545 UTC 22 Nov 2017

KMNZ 220535Z AUTO 01014KT 10SM CLR 12/02 A3024 RMK AO2 T01150020
KMNZ 220515Z AUTO 01015KT 10SM CLR 12/02 A3024 RMK AO2 T01170022
KMNZ 220455Z AUTO 01016G22KT 10SM CLR 13/02 A3024 RMK AO2 T01250022
KMNZ 220435Z AUTO 01014KT 10SM CLR 13/03 A3022 RMK AO2 T01250025
KMNZ 220415Z AUTO 01015G19KT 10SM CLR 13/03 A3021 RMK AO2 T01270027
KMNZ 220355Z AUTO 01015G19KT 10SM CLR 13/03 A3019 RMK AO2 T01250030
KMNZ 220335Z AUTO 36012KT 10SM CLR 12/04 A3018 RMK AO2 T01200039
KMNZ 220315Z AUTO 36011KT 10SM CLR 12/05 A3017 RMK AO2 T01200051
KMNZ 220255Z AUTO 36008KT 10SM CLR 12/07 A3016 RMK AO2 T01150065
KMNZ 220235Z AUTO 35008KT 10SM CLR 11/07 A3015 RMK AO2 T01140070
KMNZ 220215Z AUTO 01009KT 10SM 12/07 A3013 RMK AO2 T01200070 PWINO
KMNZ 220155Z AUTO 36008KT 10SM CLR 12/07 A3012 RMK AO2 T01180068
KMNZ 220135Z AUTO 01009KT 10SM CLR 13/07 A3011 RMK AO2 T01270070
KMNZ 220115Z AUTO 36009KT 10SM CLR 14/07 A3010 RMK AO2 T01350070
KMNZ 220055Z AUTO 36009KT 10SM CLR 13/07 A3008 RMK AO2 T01310072
KMNZ 220035Z AUTO 01009KT 10SM CLR 14/08 A3007 RMK AO2 T01410076
KMNZ 220015Z AUTO 01008KT 10SM CLR 15/08 A3005 RMK AO2 T01520080
KMNZ 212355Z AUTO 03009KT 10SM CLR 16/08 A3003 RMK AO2 T01600081 10214 20160
KMNZ 212335Z AUTO 03013KT 10SM CLR 17/08 A3002 RMK AO2 T01670081
KMNZ 212315Z AUTO 02008KT 10SM CLR 18/08 A3000 RMK AO2 T01770079
KMNZ 212255Z AUTO 03008KT 10SM CLR 19/08 A2999 RMK AO2 T01850077
KMNZ 212235Z AUTO 03009KT 10SM CLR 18/07 A2998 RMK AO2 T01840071
KMNZ 212215Z AUTO 03015G19KT 10SM CLR 19/07 A2997 RMK AO2 LTG DSNT SE T01910071
KMNZ 212155Z AUTO 04013G17KT 10SM CLR 21/07 A2995 RMK AO2 T02050069
KMNZ 212135Z AUTO 02013KT 10SM CLR 20/06 A2995 RMK AO2 T02010056
KMNZ 212115Z AUTO 03013G19KT 10SM CLR 21/07 A2994 RMK AO2 T02060065
KMNZ 212055Z AUTO 01010G14KT 10SM CLR 21/06 A2992 RMK AO2 LTG DSNT SE T02130062
KMNZ 212035Z AUTO 02009G15KT 10SM CLR 21/06 A2991 RMK AO2 T02100061
KMNZ 212015Z AUTO 35008KT 10SM CLR 21/07 A2991 RMK AO2 T02100068
KMNZ 211955Z AUTO 01006KT 10SM CLR 21/07 A2990 RMK AO2 T02050071
KMNZ 211935Z AUTO 06005KT 10SM CLR 20/07 A2989 RMK AO2 T02010071
KMNZ 211915Z AUTO 35009KT 10SM CLR 20/08 A2990 RMK AO2 T01980075
KMNZ 211855Z AUTO 35006KT 10SM CLR 19/07 A2988 RMK AO2 T01940074
KMNZ 211835Z AUTO 01006KT 10SM CLR 19/07 A2989 RMK AO2 T01900074
KMNZ 211815Z AUTO 32006KT 10SM CLR 19/07 A2989 RMK AO2 T01870074
KMNZ 211755Z AUTO 31008G11KT 10SM CLR 19/07 A2989 RMK AO2 T01910072 10196 20068
KMNZ 211735Z AUTO 30009KT 10SM CLR 20/07 A2989 RMK AO2 T01950071
KMNZ 211715Z AUTO 22003KT 10SM CLR 18/10 A2987 RMK AO2 T01820099
KMNZ 211655Z AUTO 21005KT 10SM CLR 17/10 A2986 RMK AO2 T01670097
KMNZ 211635Z AUTO 22006KT 10SM CLR 16/10 A2987 RMK AO2 T01600097
KMNZ 211615Z AUTO 23004KT 10SM CLR 14/10 A2987 RMK AO2 T01430097
KMNZ 211555Z AUTO 22006KT 10SM CLR 14/10 A2987 RMK AO2 T01400100
KMNZ 211535Z AUTO 20012KT 10SM CLR 13/11 A2985 RMK AO2 T01250105
KMNZ 211515Z AUTO 19011KT 10SM CLR 12/10 A2986 RMK AO2 T01160104
KMNZ 211455Z AUTO 19008KT 10SM CLR 11/10 A2987 RMK AO2 T01080103
KMNZ 211435Z AUTO 19007KT 10SM CLR 10/10 A2987 RMK AO2 T00980098
KMNZ 211415Z AUTO 18009KT 10SM CLR 09/09 A2986 RMK AO2 T00910091
KMNZ 211355Z AUTO 20009KT 10SM CLR 08/08 A2987 RMK AO2 T00810081
KMNZ 211335Z AUTO 19007KT 10SM CLR 08/08 A2987 RMK AO2 T00800080
KMNZ 211315Z AUTO 18009KT 10SM CLR 07/07 A2986 RMK AO2 T00730073
KMNZ 211255Z AUTO 17005KT 10SM CLR 07/07 A2987 RMK AO2 T00740074
KMNZ 211235Z AUTO 18005KT 10SM CLR 07/07 A2987 RMK AO2 T00690069
KMNZ 211215Z AUTO 18008KT 7SM CLR 07/07 A2985 RMK AO2 T00710070
KMNZ 211155Z AUTO 18008KT 10SM CLR 07/06 A2985 RMK AO2 T00740061 10110 20074
KMNZ 211135Z AUTO 18008KT 7SM CLR 08/06 A2985 RMK AO2 T00770057
KMNZ 211115Z AUTO 18009KT 10SM CLR 08/05 A2984 RMK AO2 T00770054
KMNZ 211055Z AUTO 19009KT 10SM CLR 08/05 A2985 RMK AO2 T00770052
KMNZ 211035Z AUTO 18008KT 10SM CLR 08/05 A2985 RMK AO2 T00810051
KMNZ 211015Z AUTO 18007KT 10SM CLR 08/05 A2986 RMK AO2 T00800046
KMNZ 210955Z AUTO 19008KT 10SM CLR 08/04 A2987 RMK AO2 T00750041
KMNZ 210935Z AUTO 18004KT 10SM CLR 08/04 A2987 RMK AO2 T00840040
KMNZ 210915Z AUTO 18007KT 10SM CLR 09/04 A2987 RMK AO2 T00900039
KMNZ 210855Z AUTO 19007KT 10SM CLR 08/03 A2989 RMK AO2 T00830033
KMNZ 210835Z AUTO 22004KT 10SM CLR 10/03 A2990 RMK AO2 T00950033
KMNZ 210815Z AUTO 20010KT 10SM CLR 11/03 A2988 RMK AO2 T01070031
KMNZ 210755Z AUTO 18011KT 10SM CLR 10/02 A2989 RMK AO2 T01010024
KMNZ 210735Z AUTO 19010KT 10SM CLR 11/02 A2989 RMK AO2 T01070021
KMNZ 210715Z AUTO 18008KT 10SM CLR 09/02 A2990 RMK AO2 T00910021
KMNZ 210655Z AUTO 18008KT 10SM CLR 09/02 A2991 RMK AO2 T00940017
KMNZ 210635Z AUTO 17009KT 10SM CLR 09/02 A2993 RMK AO2 T00900021
KMNZ 210615Z AUTO 19005KT 10SM CLR 09/02 A2994 RMK AO2 T00850016
KMNZ 210555Z AUTO 21009KT 10SM CLR 09/02 A2995 RMK AO2 T00930020 10134 20082 401910021
KMNZ 210535Z AUTO 20007KT 10SM CLR 09/02 A2996 RMK AO2 T00940020
KMNZ 210515Z AUTO 19007KT 10SM CLR 10/02 A2996 RMK AO2 T01000015
KMNZ 210455Z AUTO 20007KT 10SM CLR 10/02 A2997 RMK AO2 T01020015
KMNZ 210435Z AUTO 20008KT 10SM CLR 11/01 A2997 RMK AO2 T01080013
KMNZ 210415Z AUTO 20009KT 10SM CLR 11/01 A2997 RMK AO2 T01100013
KMNZ 210355Z AUTO 20010KT 10SM CLR 11/02 A2997 RMK AO2 T01070015
KMNZ 210335Z AUTO 19009KT 10SM CLR 10/02 A2996 RMK AO2 T01010015
KMNZ 210315Z AUTO 19007KT 10SM CLR 10/02 A2997 RMK AO2 T01040015
KMNZ 210255Z AUTO 18009KT 10SM CLR 10/02 A2997 RMK AO2 T01010017
KMNZ 210235Z AUTO 18008KT 10SM CLR 09/02 A2997 RMK AO2 T00870020
KMNZ 210215Z AUTO 17007KT 10SM CLR 09/02 A2998 RMK AO2 T00860021
KMNZ 210155Z AUTO 18006KT 10SM CLR 09/02 A2999 RMK AO2 T00910019
KMNZ 210135Z AUTO 17006KT 10SM CLR 09/02 A2999 RMK AO2 T00930016
KMNZ 210115Z AUTO 17006KT 10SM CLR 10/02 A2999 RMK AO2 T01030018
KMNZ 210055Z AUTO 17006KT 10SM CLR 11/02 A2999 RMK AO2 T01120018
KMNZ 210035Z AUTO 17007KT 10SM CLR 12/01 A2999 RMK AO2 T01150014
KMNZ 210015Z AUTO 16005KT 10SM CLR 12/01 A2999 RMK AO2 T01230011
KMNZ 202355Z AUTO 17005KT 10SM CLR 14/01 A3000 RMK AO2 T01350007 10191 20135
KMNZ 202335Z AUTO 17005KT 10SM CLR 14/00 A3000 RMK AO2 T01440000
KMNZ 202315Z AUTO 19007KT 10SM CLR 17/00 A3000 RMK AO2 T01650000
KMNZ 202255Z AUTO 19008KT 10SM CLR 17/00 A3000 RMK AO2 T01730001
KMNZ 202235Z AUTO 20009KT 10SM CLR 17/00 A3000 RMK AO2 T01710000
KMNZ 202215Z AUTO 21012KT 10SM CLR 18/00 A3000 RMK AO2 T01801001
KMNZ 202155Z AUTO 19013KT 10SM CLR 19/00 A3000 RMK AO2 T01851003
KMNZ 202135Z AUTO 20013KT 10SM CLR 19/00 A3001 RMK AO2 T01900000
KMNZ 202115Z AUTO 19011G17KT 10SM CLR 19/00 A3001 RMK AO2 T01860000
KMNZ 202055Z AUTO 19014G18KT 10SM CLR 19/00 A3002 RMK AO2 T01871004
KMNZ 202035Z AUTO 20012G21KT 10SM CLR 19/M01 A3003 RMK AO2 T01861010
KMNZ 202015Z AUTO 19012G18KT 10SM CLR 19/M01 A3002 RMK AO2 T01901009
KMNZ 201955Z AUTO 21011KT 10SM CLR 19/M01 A3003 RMK AO2 T01891009
KMNZ 201935Z AUTO 21014G19KT 10SM CLR 19/M01 A3005 RMK AO2 T01851007
KMNZ 201915Z AUTO 19014G17KT 10SM CLR 19/00 A3006 RMK AO2 T01851004
KMNZ 201855Z AUTO 19013KT 10SM CLR 18/00 A3007 RMK AO2 T01811001
KMNZ 201835Z AUTO 18015G18KT 10SM CLR 18/00 A3009 RMK AO2 T01800000
KMNZ 201815Z AUTO 18012G15KT 10SM CLR 17/00 A3011 RMK AO2 T01700000
KMNZ 201755Z AUTO 20011KT 10SM CLR 17/00 A3013 RMK AO2 T01650001 10165 20021